Time;durP1;ratioP1;P1;durP2;ratioP2;P2;SDS_P1;SDS_P2;PMS_P1;PMS_P2;Temp;Humidity;BMP_temperature;BMP_pressure;BME280_temperature;BME280_humidity;BME280_pressure;Samples;Min_cycle;Max_cycle;Signal;HPM_P1;HPM_P2
2023/09/16 00:02:07;;;;;;;;;;;;;;;28.66;33.36;101044.25;5064750;28;1214;-32
2023/09/16 00:04:33;;;;;;;;;;;;;;;28.62;33.62;101040.22;5078823;28;1090;-31
2023/09/16 00:06:59;;;;;;;;;;;;;;;28.69;33.43;101047.44;5075019;28;1203;-31
2023/09/16 00:09:24;;;;;;;;;;;;;;;28.73;33.43;101045.16;5058664;28;1214;-30
2023/09/16 00:11:50;;;;;;;;;;;;;;;28.68;33.71;101040.31;5062947;28;1054;-30
2023/09/16 00:14:18;;;;;;;;;;;;;;;28.70;33.58;101037.44;5078333;28;1131;-32
2023/09/16 00:16:44;;;;;;;;;;;;;;;28.65;33.83;101042.56;5064609;28;1046;-31
2023/09/16 00:19:10;;;;;;;;;;;;;;;28.67;33.48;101033.25;5078265;28;1964;-28
2023/09/16 00:21:35;;;;;;;;;;;;;;;28.57;33.92;101036.22;5065226;28;1059;-32
2023/09/16 00:24:01;;;;;;;;;;;;;;;28.65;33.96;101026.31;5067255;28;1066;-30
2023/09/16 00:26:27;;;;;;;;;;;;;;;28.44;34.11;101036.88;5075952;28;1157;-30
2023/09/16 00:28:52;;;;;;;;;;;;;;;28.68;33.89;101034.06;5078051;28;1078;-28
2023/09/16 00:31:18;;;;;;;;;;;;;;;28.77;33.70;101034.81;5055110;28;1079;-30
2023/09/16 00:33:43;;;;;;;;;;;;;;;28.64;33.98;101033.63;5058128;28;1012;-31
2023/09/16 00:36:09;;;;;;;;;;;;;;;28.69;33.84;101033.91;5057345;28;1115;-29
2023/09/16 00:38:34;;;;;;;;;;;;;;;28.61;33.81;101034.00;5077293;28;1898;-31
2023/09/16 00:41:00;;;;;;;;;;;;;;;28.65;33.60;101037.16;5061011;28;984;-31
2023/09/16 00:43:26;;;;;;;;;;;;;;;28.68;34.07;101034.06;5050680;28;1977;-31
2023/09/16 00:45:51;;;;;;;;;;;;;;;28.69;33.79;101035.75;5077560;28;1162;-29
2023/09/16 00:48:18;;;;;;;;;;;;;;;28.62;34.07;101041.06;5059811;28;1213;-31
2023/09/16 00:50:44;;;;;;;;;;;;;;;28.44;34.31;101039.59;5064343;28;1113;-29
2023/09/16 00:53:09;;;;;;;;;;;;;;;28.51;34.13;101036.13;5049778;28;1036;-31
2023/09/16 00:55:35;;;;;;;;;;;;;;;28.50;34.19;101035.28;5027253;28;1240;-30
2023/09/16 00:58:01;;;;;;;;;;;;;;;28.57;34.07;101038.94;5067237;28;1910;-34
2023/09/16 01:00:26;;;;;;;;;;;;;;;28.57;34.24;101040.78;5040285;28;1116;-30
2023/09/16 01:02:52;;;;;;;;;;;;;;;28.73;33.96;101045.16;5042951;28;1080;-30
2023/09/16 01:05:17;;;;;;;;;;;;;;;28.72;33.93;101047.06;5073349;28;1166;-28
2023/09/16 01:07:45;;;;;;;;;;;;;;;28.69;33.82;101052.00;5033794;28;1143;-30
2023/09/16 01:10:11;;;;;;;;;;;;;;;28.57;34.16;101055.19;5059329;28;1027;-30
2023/09/16 01:12:40;;;;;;;;;;;;;;;28.55;34.24;101056.38;5059640;28;1504;-29
2023/09/16 01:15:06;;;;;;;;;;;;;;;28.64;34.05;101057.13;5044451;28;1066;-31
2023/09/16 01:17:33;;;;;;;;;;;;;;;28.64;34.10;101060.69;5077476;28;1327;-32
2023/09/16 01:20:06;;;;;;;;;;;;;;;28.44;34.21;101054.97;5056898;28;1988;-32
2023/09/16 01:22:32;;;;;;;;;;;;;;;28.59;34.22;101066.63;5063743;28;1067;-31
2023/09/16 01:25:07;;;;;;;;;;;;;;;28.60;34.33;101060.22;5069272;28;1134;-29
2023/09/16 01:27:34;;;;;;;;;;;;;;;28.68;34.24;101058.41;5055004;28;1106;-29
2023/09/16 01:29:59;;;;;;;;;;;;;;;28.62;34.54;101065.44;5067855;28;1090;-32
2023/09/16 01:32:37;;;;;;;;;;;;;;;28.71;34.05;101066.19;5073139;28;1196;-29
2023/09/16 01:35:06;;;;;;;;;;;;;;;28.71;34.12;101071.63;5066286;28;1066;-31
2023/09/16 01:37:31;;;;;;;;;;;;;;;28.62;34.21;101067.28;5072393;28;1062;-30
2023/09/16 01:39:57;;;;;;;;;;;;;;;28.76;33.47;101076.47;5048640;28;1910;-30
2023/09/16 01:42:23;;;;;;;;;;;;;;;28.70;33.94;101073.47;5074598;28;1083;-29
2023/09/16 01:44:50;;;;;;;;;;;;;;;28.50;34.04;101072.31;5056984;28;1063;-28
2023/09/16 01:47:15;;;;;;;;;;;;;;;28.51;34.27;101074.84;5041058;28;1138;-32
2023/09/16 01:49:41;;;;;;;;;;;;;;;28.51;34.20;101076.72;5067616;28;1243;-30
2023/09/16 01:52:07;;;;;;;;;;;;;;;28.49;34.32;101076.91;5055096;28;1581;-29
2023/09/16 01:54:33;;;;;;;;;;;;;;;28.50;34.43;101075.88;5056409;28;1119;-30
2023/09/16 01:56:58;;;;;;;;;;;;;;;28.65;34.20;101075.03;5054032;28;1205;-32
2023/09/16 01:59:24;;;;;;;;;;;;;;;28.51;34.29;101065.91;5058347;28;1981;-32
2023/09/16 02:01:49;;;;;;;;;;;;;;;28.44;34.20;101069.34;5043342;28;1392;-31
2023/09/16 02:04:15;;;;;;;;;;;;;;;28.56;33.99;101074.31;5058946;28;920;-29
2023/09/16 02:06:41;;;;;;;;;;;;;;;28.41;34.38;101072.41;5053135;28;1261;-30
2023/09/16 02:09:07;;;;;;;;;;;;;;;28.46;34.43;101071.88;5076548;28;1092;-30
2023/09/16 02:11:32;;;;;;;;;;;;;;;28.54;33.90;101077.19;5061701;28;1074;-29
2023/09/16 02:13:59;;;;;;;;;;;;;;;28.49;33.98;101076.91;5046629;28;1047;-28
2023/09/16 02:16:24;;;;;;;;;;;;;;;28.59;33.89;101082.88;5056629;28;1138;-28
2023/09/16 02:18:50;;;;;;;;;;;;;;;28.59;33.89;101080.16;5046609;28;1961;-31
2023/09/16 02:21:15;;;;;;;;;;;;;;;28.54;33.71;101082.63;5075860;28;1016;-31
2023/09/16 02:23:41;;;;;;;;;;;;;;;28.57;33.68;101092.22;5058331;28;1112;-28
2023/09/16 02:26:06;;;;;;;;;;;;;;;28.57;33.78;101094.91;5061009;28;1134;-29
2023/09/16 02:28:32;;;;;;;;;;;;;;;28.62;33.84;101089.81;5067111;28;911;-27
2023/09/16 02:30:57;;;;;;;;;;;;;;;28.57;33.92;101092.22;5076273;28;1036;-30
2023/09/16 02:33:23;;;;;;;;;;;;;;;28.57;33.91;101090.34;5050008;28;1234;-29
2023/09/16 02:35:48;;;;;;;;;;;;;;;28.39;34.00;101088.00;5051534;28;1131;-31
2023/09/16 02:38:14;;;;;;;;;;;;;;;28.42;33.94;101090.34;5055998;28;1983;-33
2023/09/16 02:40:43;;;;;;;;;;;;;;;28.46;33.73;101097.03;5052367;28;1354;-31
2023/09/16 02:43:10;;;;;;;;;;;;;;;28.43;34.14;101101.97;5057982;28;1185;-31
2023/09/16 02:45:40;;;;;;;;;;;;;;;28.57;33.71;101101.19;5061213;28;1042;-28
2023/09/16 02:48:05;;;;;;;;;;;;;;;28.53;33.78;101105.28;5064487;28;1122;-28
2023/09/16 02:50:37;;;;;;;;;;;;;;;28.46;33.86;101109.75;5058128;28;1143;-34
2023/09/16 02:53:03;;;;;;;;;;;;;;;28.53;33.65;101113.38;5058533;28;844;-32
2023/09/16 02:55:30;;;;;;;;;;;;;;;28.56;33.71;101112.19;5062156;28;1279;-29
2023/09/16 02:57:56;;;;;;;;;;;;;;;28.58;33.57;101112.84;5079624;28;1502;-31
2023/09/16 03:00:22;;;;;;;;;;;;;;;28.54;33.53;101115.09;5061599;28;1120;-28
2023/09/16 03:02:48;;;;;;;;;;;;;;;28.59;33.54;101109.94;5061816;28;1110;-28
2023/09/16 03:05:15;;;;;;;;;;;;;;;28.43;33.95;101113.66;5060104;28;1349;-28
2023/09/16 03:07:43;;;;;;;;;;;;;;;28.53;33.55;101126.09;5062127;28;1287;-29
2023/09/16 03:10:08;;;;;;;;;;;;;;;28.43;33.59;101126.31;5061725;28;1163;-33
2023/09/16 03:12:34;;;;;;;;;;;;;;;28.48;33.74;101127.47;5068677;28;1031;-32
2023/09/16 03:15:00;;;;;;;;;;;;;;;28.42;33.80;101122.81;5042191;28;1337;-29
2023/09/16 03:17:26;;;;;;;;;;;;;;;28.46;33.47;101121.41;5064845;28;905;-31
2023/09/16 03:19:52;;;;;;;;;;;;;;;28.40;34.45;101124.84;5041404;28;1961;-29
2023/09/16 03:22:18;;;;;;;;;;;;;;;28.33;34.67;101123.88;5052556;28;1241;-33
2023/09/16 03:24:43;;;;;;;;;;;;;;;28.41;34.60;101123.81;5075227;28;1038;-31
2023/09/16 03:27:09;;;;;;;;;;;;;;;28.41;34.78;101131.09;5041860;28;1190;-29
2023/09/16 03:29:35;;;;;;;;;;;;;;;28.55;34.34;101129.44;5058062;28;912;-31
2023/09/16 03:32:02;;;;;;;;;;;;;;;28.54;34.61;101131.31;5052786;28;1337;-30
2023/09/16 03:34:28;;;;;;;;;;;;;;;28.46;34.72;101132.22;5053085;28;1325;-30
2023/09/16 03:36:54;;;;;;;;;;;;;;;28.43;34.75;101129.03;5045024;28;1300;-31
2023/09/16 03:39:20;;;;;;;;;;;;;;;28.32;35.19;101141.97;5057801;28;1910;-28
2023/09/16 03:41:46;;;;;;;;;;;;;;;28.47;34.66;101142.03;5050630;28;1183;-32
2023/09/16 03:44:14;;;;;;;;;;;;;;;27.65;38.53;101135.28;5058481;28;1441;-27
2023/09/16 03:46:39;;;;;;;;;;;;;;;27.07;40.61;101142.63;5061228;28;1133;-29
2023/09/16 03:49:06;;;;;;;;;;;;;;;26.87;40.92;101140.28;5061015;28;1242;-32
2023/09/16 03:51:36;;;;;;;;;;;;;;;27.00;40.91;101145.13;5060399;28;1870;-30
2023/09/16 03:54:04;;;;;;;;;;;;;;;26.91;41.40;101143.44;5041153;28;1228;-28
2023/09/16 03:56:29;;;;;;;;;;;;;;;26.17;36.22;101146.00;5060804;28;1263;-30
2023/09/16 03:58:55;;;;;;;;;;;;;;;27.44;35.06;101152.94;5041861;28;1910;-32
2023/09/16 04:01:24;;;;;;;;;;;;;;;27.78;35.53;101145.56;5053432;28;1323;-34
2023/09/16 04:03:49;;;;;;;;;;;;;;;27.92;35.95;101149.34;5058090;28;1030;-34
2023/09/16 04:06:15;;;;;;;;;;;;;;;27.73;36.04;101148.78;5060078;28;1154;-31
2023/09/16 04:08:40;;;;;;;;;;;;;;;27.88;36.77;101148.84;5078304;28;1225;-34
2023/09/16 04:11:06;;;;;;;;;;;;;;;27.92;35.52;101147.50;5060610;28;1358;-32
2023/09/16 04:13:32;;;;;;;;;;;;;;;27.32;38.89;101152.50;5078486;28;1189;-33
2023/09/16 04:15:57;;;;;;;;;;;;;;;26.95;41.03;101152.06;5079105;28;1066;-35
2023/09/16 04:18:24;;;;;;;;;;;;;;;26.94;41.30;101156.63;5078140;28;1978;-31
2023/09/16 04:20:55;;;;;;;;;;;;;;;26.90;41.78;101147.19;5052724;28;1128;-33
2023/09/16 04:23:24;;;;;;;;;;;;;;;26.73;42.30;101140.94;5073189;28;1323;-34
2023/09/16 04:25:57;;;;;;;;;;;;;;;26.64;42.75;101143.66;5048597;28;1214;-30
2023/09/16 04:28:23;;;;;;;;;;;;;;;26.60;43.11;101144.19;5056406;28;1263;-36
2023/09/16 04:30:49;;;;;;;;;;;;;;;26.81;42.28;101143.63;5054215;28;1262;-33
2023/09/16 04:33:16;;;;;;;;;;;;;;;26.82;42.27;101139.09;5048538;28;1492;-30
2023/09/16 04:35:44;;;;;;;;;;;;;;;26.82;42.48;101148.03;5047802;28;1248;-30
2023/09/16 04:38:10;;;;;;;;;;;;;;;26.93;42.52;101141.44;5060350;28;1984;-35
2023/09/16 04:40:35;;;;;;;;;;;;;;;26.98;42.37;101141.75;5049908;28;1200;-34
2023/09/16 04:43:03;;;;;;;;;;;;;;;26.83;42.83;101146.16;5077809;28;1125;-30
2023/09/16 04:45:29;;;;;;;;;;;;;;;26.72;43.06;101139.28;5060185;28;1138;-34
2023/09/16 04:47:56;;;;;;;;;;;;;;;26.77;43.38;101139.63;5060241;28;1172;-32
2023/09/16 04:50:22;;;;;;;;;;;;;;;26.71;43.73;101148.41;5059896;28;1146;-31
2023/09/16 04:52:48;;;;;;;;;;;;;;;26.80;43.50;101150.06;5059576;28;1152;-31
2023/09/16 04:55:14;;;;;;;;;;;;;;;26.57;44.21;101150.78;5059966;28;1146;-33
2023/09/16 04:57:40;;;;;;;;;;;;;;;26.62;44.13;101150.25;5052686;28;1376;-29
2023/09/16 05:00:06;;;;;;;;;;;;;;;26.65;44.08;101147.22;5053729;28;1987;-31
2023/09/16 05:02:33;;;;;;;;;;;;;;;26.79;43.34;101151.09;5059545;28;1382;-31
2023/09/16 05:05:00;;;;;;;;;;;;;;;26.76;44.09;101152.25;5050523;28;1208;-34
2023/09/16 05:07:26;;;;;;;;;;;;;;;26.72;44.35;101153.63;5059845;28;1186;-35
2023/09/16 05:09:52;;;;;;;;;;;;;;;26.81;44.77;101153.63;5055340;28;1202;-33
2023/09/16 05:12:17;;;;;;;;;;;;;;;26.76;44.92;101160.34;5044722;28;1341;-34
2023/09/16 05:14:43;;;;;;;;;;;;;;;26.70;44.93;101157.50;5056158;28;1411;-33
2023/09/16 05:17:08;;;;;;;;;;;;;;;26.91;43.46;101159.66;5061686;28;1368;-33
2023/09/16 05:19:34;;;;;;;;;;;;;;;26.86;44.20;101156.66;5042187;28;1976;-34
2023/09/16 05:22:00;;;;;;;;;;;;;;;26.95;44.29;101152.06;5052919;28;1226;-33
2023/09/16 05:24:29;;;;;;;;;;;;;;;26.91;44.26;101159.66;5039964;28;1971;-35
2023/09/16 05:26:55;;;;;;;;;;;;;;;26.97;44.17;101166.22;5064072;28;1454;-34
2023/09/16 05:29:21;;;;;;;;;;;;;;;27.63;41.97;101162.47;5077114;28;1135;-32
2023/09/16 05:31:46;;;;;;;;;;;;;;;28.09;41.43;101156.31;5056241;28;1233;-32
2023/09/16 05:34:12;;;;;;;;;;;;;;;28.16;40.87;101161.84;5046674;28;1250;-34
2023/09/16 05:36:38;;;;;;;;;;;;;;;28.21;40.33;101164.03;5070749;28;1280;-30
2023/09/16 05:39:04;;;;;;;;;;;;;;;28.23;40.64;101168.22;5045646;28;1992;-33
2023/09/16 05:41:30;;;;;;;;;;;;;;;28.40;40.37;101165.44;5058776;28;1311;-33
2023/09/16 05:43:56;;;;;;;;;;;;;;;28.30;40.92;101175.63;5047780;28;1350;-31
2023/09/16 05:46:23;;;;;;;;;;;;;;;28.36;40.26;101174.94;5058768;28;1233;-32
2023/09/16 05:48:50;;;;;;;;;;;;;;;28.38;40.17;101170.16;5064660;28;1230;-35
2023/09/16 05:51:15;;;;;;;;;;;;;;;28.46;39.95;101180.09;5045761;28;1114;-30
2023/09/16 05:53:42;;;;;;;;;;;;;;;28.36;40.04;101177.66;5058679;28;1222;-32
2023/09/16 05:56:08;;;;;;;;;;;;;;;28.55;40.17;101187.13;5045090;28;1290;-31
2023/09/16 05:58:44;;;;;;;;;;;;;;;28.43;40.24;101183.16;5052034;28;2432;-29
2023/09/16 06:01:10;;;;;;;;;;;;;;;28.39;39.92;101184.56;5054278;28;1971;-31
2023/09/16 06:03:35;;;;;;;;;;;;;;;28.53;39.89;101188.34;5075731;28;1851;-33
2023/09/16 06:06:01;;;;;;;;;;;;;;;28.54;40.52;101190.00;5075684;28;2109;-30
2023/09/16 06:08:27;;;;;;;;;;;;;;;28.70;40.06;101200.69;5058026;28;2102;-31
2023/09/16 06:10:55;;;;;;;;;;;;;;;28.65;39.56;101196.84;5057977;28;2332;-29
2023/09/16 06:13:20;;;;;;;;;;;;;;;28.49;39.68;101195.97;5058162;28;2219;-31
2023/09/16 06:15:46;;;;;;;;;;;;;;;28.46;39.82;101207.16;5057485;28;1054;-33
2023/09/16 06:18:11;;;;;;;;;;;;;;;28.41;40.00;101204.16;5057403;28;1902;-30
2023/09/16 06:20:38;;;;;;;;;;;;;;;28.69;38.84;101201.75;5058016;28;1226;-30
2023/09/16 06:23:04;;;;;;;;;;;;;;;28.55;39.34;101202.50;5058281;28;1020;-33
2023/09/16 06:25:30;;;;;;;;;;;;;;;28.44;39.70;101211.91;5057360;28;1237;-29
2023/09/16 06:27:58;;;;;;;;;;;;;;;28.57;38.87;101214.84;5057599;28;1382;-32
2023/09/16 06:30:23;;;;;;;;;;;;;;;28.64;38.75;101212.25;5053493;28;1166;-28
2023/09/16 06:32:49;;;;;;;;;;;;;;;28.32;39.77;101208.75;5037991;28;1182;-31
2023/09/16 06:35:15;;;;;;;;;;;;;;;28.59;38.69;101212.78;5054940;28;1123;-32
2023/09/16 06:37:40;;;;;;;;;;;;;;;28.47;39.23;101216.97;5057699;28;1277;-34
2023/09/16 06:40:06;;;;;;;;;;;;;;;28.70;38.12;101224.22;5057129;28;1918;-31
2023/09/16 06:42:32;;;;;;;;;;;;;;;28.73;38.49;101221.13;5057293;28;1191;-29
2023/09/16 06:45:00;;;;;;;;;;;;;;;28.72;38.38;101233.84;5057263;28;2555;-30
2023/09/16 06:47:29;;;;;;;;;;;;;;;28.75;38.26;101223.66;5057728;28;1126;-29
2023/09/16 06:49:55;;;;;;;;;;;;;;;28.68;38.53;101227.09;5075878;28;1003;-31
2023/09/16 06:52:22;;;;;;;;;;;;;;;28.66;38.63;101234.56;5062089;28;1266;-27
2023/09/16 06:54:48;;;;;;;;;;;;;;;28.88;37.97;101234.72;5074946;28;842;-31
2023/09/16 06:57:14;;;;;;;;;;;;;;;28.81;38.15;101237.31;5063778;28;1070;-34
2023/09/16 06:59:40;;;;;;;;;;;;;;;28.91;38.08;101233.53;5075506;28;1997;-31
2023/09/16 07:02:05;;;;;;;;;;;;;;;28.73;38.11;101235.53;5062996;28;1162;-35
2023/09/16 07:04:30;;;;;;;;;;;;;;;28.55;38.39;101235.84;5062082;28;1066;-29
2023/09/16 07:06:56;;;;;;;;;;;;;;;28.70;38.54;101244.00;5074944;28;909;-30
2023/09/16 07:09:22;;;;;;;;;;;;;;;28.66;38.49;101231.03;5075576;28;1528;-30
2023/09/16 07:11:47;;;;;;;;;;;;;;;28.87;37.77;101237.59;5075458;28;1107;-29
2023/09/16 07:14:13;;;;;;;;;;;;;;;28.73;38.20;101240.94;5075441;28;2487;-32
2023/09/16 07:16:40;;;;;;;;;;;;;;;28.72;37.98;101241.13;5063777;28;1082;-33
2023/09/16 07:19:06;;;;;;;;;;;;;;;28.88;37.71;101239.31;5073218;28;1913;-32
2023/09/16 07:21:31;;;;;;;;;;;;;;;28.88;37.11;101242.84;5063974;28;1031;-29
2023/09/16 07:24:01;;;;;;;;;;;;;;;28.85;37.46;101243.22;5073458;28;1011;-32
2023/09/16 07:26:30;;;;;;;;;;;;;;;29.07;36.77;101243.38;5075238;28;1336;-30
2023/09/16 07:28:56;;;;;;;;;;;;;;;28.96;37.55;101248.19;5074486;28;1121;-33
2023/09/16 07:31:21;;;;;;;;;;;;;;;29.02;37.32;101252.06;5075121;28;916;-30
2023/09/16 07:33:47;;;;;;;;;;;;;;;28.76;38.03;101255.16;5075219;28;1145;-30
2023/09/16 07:36:12;;;;;;;;;;;;;;;28.85;37.54;101262.16;5075183;28;975;-30
2023/09/16 07:38:38;;;;;;;;;;;;;;;29.01;37.06;101261.19;5066777;28;1906;-35
2023/09/16 07:41:03;;;;;;;;;;;;;;;28.99;37.27;101257.84;5076418;28;1254;-30
2023/09/16 07:43:29;;;;;;;;;;;;;;;29.01;37.34;101265.78;5074926;28;1830;-31
2023/09/16 07:45:56;;;;;;;;;;;;;;;28.90;37.43;101259.75;5078069;28;1020;-32
2023/09/16 07:48:22;;;;;;;;;;;;;;;29.13;37.05;101264.31;5066098;28;1010;-30
2023/09/16 07:50:48;;;;;;;;;;;;;;;28.99;37.40;101265.13;5077604;28;1039;-28
2023/09/16 07:53:14;;;;;;;;;;;;;;;28.94;37.52;101266.50;5079180;28;1177;-29
2023/09/16 07:55:40;;;;;;;;;;;;;;;29.04;37.23;101268.97;5078347;28;1003;-33
2023/09/16 07:58:05;;;;;;;;;;;;;;;29.00;37.04;101267.66;5065983;28;1028;-29
2023/09/16 08:00:31;;;;;;;;;;;;;;;29.08;37.07;101266.72;5077296;28;1973;-35
2023/09/16 08:02:56;;;;;;;;;;;;;;;28.96;36.88;101277.16;5078766;28;992;-31
2023/09/16 08:05:22;;;;;;;;;;;;;;;28.81;37.32;101275.22;5072942;28;1023;-33
2023/09/16 08:07:47;;;;;;;;;;;;;;;28.95;36.15;101275.44;5074943;28;967;-32
2023/09/16 08:10:13;;;;;;;;;;;;;;;29.08;36.80;101274.84;5064815;28;1078;-31
2023/09/16 08:12:38;;;;;;;;;;;;;;;28.99;36.95;101271.38;5077978;28;1059;-33
2023/09/16 08:15:06;;;;;;;;;;;;;;;28.92;36.87;101273.97;5066468;28;1831;-32
2023/09/16 08:17:37;;;;;;;;;;;;;;;29.14;36.42;101273.28;5077947;28;1103;-29
2023/09/16 08:20:04;;;;;;;;;;;;;;;29.15;36.48;101272.25;5075819;28;1910;-32
2023/09/16 08:22:29;;;;;;;;;;;;;;;29.17;36.64;101275.63;5077621;28;1064;-32
2023/09/16 08:24:55;;;;;;;;;;;;;;;28.94;37.27;101277.34;5064762;28;1040;-34
2023/09/16 08:27:21;;;;;;;;;;;;;;;29.04;36.97;101278.97;5065005;28;1102;-34
2023/09/16 08:29:47;;;;;;;;;;;;;;;29.08;37.12;101274.84;5064784;28;1083;-31
2023/09/16 08:32:12;;;;;;;;;;;;;;;28.96;37.36;101280.69;5077705;28;897;-30
2023/09/16 08:34:38;;;;;;;;;;;;;;;28.90;37.45;101272.44;5071405;28;1226;-29
2023/09/16 08:37:03;;;;;;;;;;;;;;;29.01;37.16;101272.03;5071319;28;992;-33
2023/09/16 08:39:29;;;;;;;;;;;;;;;29.12;37.52;101272.63;5076855;28;1906;-31
2023/09/16 08:42:20;;;;;;;;;;;;;;;29.23;36.46;101280.28;5077992;28;1190;-29
2023/09/16 08:44:47;;;;;;;;;;;;;;;29.18;37.00;101280.00;5034140;28;2609;-31
2023/09/16 08:47:20;;;;;;;;;;;;;;;29.33;35.86;101270.03;5054494;28;1159;-28
2023/09/16 08:49:49;;;;;;;;;;;;;;;29.14;37.11;101276.00;5059298;28;1185;-30
2023/09/16 08:52:15;;;;;;;;;;;;;;;29.20;36.80;101276.09;5059066;28;1151;-30
2023/09/16 08:54:40;;;;;;;;;;;;;;;29.33;36.92;101270.03;5076837;28;1110;-30
2023/09/16 08:57:06;;;;;;;;;;;;;;;29.29;36.62;101276.00;5059600;28;1107;-29
2023/09/16 08:59:31;;;;;;;;;;;;;;;29.38;36.25;101279.50;5059388;28;1910;-32
2023/09/16 09:01:57;;;;;;;;;;;;;;;29.39;36.38;101273.03;5059145;28;1226;-30
2023/09/16 09:04:23;;;;;;;;;;;;;;;29.55;36.22;101272.00;5077201;28;1143;-31
2023/09/16 09:06:48;;;;;;;;;;;;;;;29.77;35.38;101272.13;5076734;28;1148;-31
2023/09/16 09:09:14;;;;;;;;;;;;;;;29.58;35.37;101275.19;5059404;28;1114;-30
2023/09/16 09:11:39;;;;;;;;;;;;;;;29.45;35.83;101269.56;5076935;28;1085;-29
2023/09/16 09:14:05;;;;;;;;;;;;;;;29.41;36.09;101262.84;5067412;28;2345;-32
2023/09/16 09:16:30;;;;;;;;;;;;;;;29.48;36.11;101271.09;5070467;28;1035;-33
2023/09/16 09:18:56;;;;;;;;;;;;;;;29.65;35.58;101269.88;5039508;28;1975;-34
2023/09/16 09:21:22;;;;;;;;;;;;;;;29.70;35.43;101263.88;5071134;28;1304;-34
2023/09/16 09:23:47;;;;;;;;;;;;;;;29.85;35.51;101272.00;5065653;28;1151;-28
2023/09/16 09:26:13;;;;;;;;;;;;;;;29.92;34.43;101270.22;5064217;28;1194;-31
2023/09/16 09:28:38;;;;;;;;;;;;;;;29.90;35.27;101266.00;5073243;28;1127;-32
2023/09/16 09:31:04;;;;;;;;;;;;;;;29.91;35.12;101265.81;5073504;28;1058;-34
2023/09/16 09:33:30;;;;;;;;;;;;;;;30.15;34.40;101265.69;5069124;28;1206;-29
2023/09/16 09:36:08;;;;;;;;;;;;;;;30.19;33.97;101265.13;5067752;28;1067;-29
2023/09/16 09:38:34;;;;;;;;;;;;;;;30.09;34.13;101267.31;5075972;28;1914;-31
2023/09/16 09:41:00;;;;;;;;;;;;;;;30.06;33.81;101267.69;5045766;28;1495;-29
2023/09/16 09:43:28;;;;;;;;;;;;;;;30.14;34.54;101264.00;5075554;28;2285;-30
2023/09/16 09:45:53;;;;;;;;;;;;;;;29.93;35.20;101260.19;5064858;28;1274;-31
2023/09/16 09:48:19;;;;;;;;;;;;;;;30.25;34.31;101254.53;5051858;28;1336;-34
2023/09/16 09:50:44;;;;;;;;;;;;;;;30.50;33.42;101263.16;5058295;28;1187;-30
2023/09/16 09:53:10;;;;;;;;;;;;;;;30.34;33.84;101269.69;5075959;28;1078;-29
2023/09/16 09:55:35;;;;;;;;;;;;;;;30.31;33.91;101262.75;5058309;28;1019;-30
2023/09/16 09:58:01;;;;;;;;;;;;;;;30.32;34.52;101266.31;5074320;28;1066;-31
2023/09/16 10:00:26;;;;;;;;;;;;;;;30.22;34.14;101265.78;5057211;28;1901;-30
2023/09/16 10:02:52;;;;;;;;;;;;;;;30.49;33.65;101258.78;5058393;28;1023;-30
2023/09/16 10:05:21;;;;;;;;;;;;;;;30.64;33.11;101266.00;5058064;28;1202;-32
2023/09/16 10:07:47;;;;;;;;;;;;;;;30.61;32.83;101260.97;5075587;28;1035;-33
2023/09/16 10:10:13;;;;;;;;;;;;;;;30.42;32.94;101266.84;5076270;28;1149;-36
2023/09/16 10:12:39;;;;;;;;;;;;;;;30.39;33.10;101274.53;5075695;28;987;-32
2023/09/16 10:15:07;;;;;;;;;;;;;;;30.55;32.98;101262.56;5062931;28;2220;-33
2023/09/16 10:17:32;;;;;;;;;;;;;;;30.71;32.67;101266.91;5058304;28;1257;-30
2023/09/16 10:19:59;;;;;;;;;;;;;;;30.80;32.67;101262.19;5067142;28;1910;-33
2023/09/16 10:22:24;;;;;;;;;;;;;;;30.86;33.17;101269.59;5075868;28;1023;-34
2023/09/16 10:24:49;;;;;;;;;;;;;;;30.95;32.77;101264.81;5075792;28;1042;-30
2023/09/16 10:27:18;;;;;;;;;;;;;;;31.02;32.72;101257.56;5075942;28;1034;-32
2023/09/16 10:29:43;;;;;;;;;;;;;;;31.08;32.59;101264.09;5057645;28;1095;-32
2023/09/16 10:32:09;;;;;;;;;;;;;;;31.09;32.25;101257.63;5075617;28;1093;-30
2023/09/16 10:34:34;;;;;;;;;;;;;;;31.06;32.34;101265.34;5075982;28;986;-32
2023/09/16 10:37:00;;;;;;;;;;;;;;;31.15;32.23;101267.69;5057643;28;1087;-31
2023/09/16 10:39:25;;;;;;;;;;;;;;;31.21;32.26;101257.94;5075374;28;1910;-31
2023/09/16 10:41:51;;;;;;;;;;;;;;;31.42;32.86;101258.06;5057826;28;1011;-34
2023/09/16 10:44:16;;;;;;;;;;;;;;;31.37;33.04;101253.19;5058019;28;2389;-33
2023/09/16 10:46:43;;;;;;;;;;;;;;;31.39;32.64;101251.16;5057757;28;1394;-32
2023/09/16 10:49:08;;;;;;;;;;;;;;;31.26;32.65;101252.72;5075171;28;1156;-30
2023/09/16 10:51:39;;;;;;;;;;;;;;;31.48;31.79;101252.66;5075565;28;1174;-33
2023/09/16 10:54:14;;;;;;;;;;;;;;;31.62;31.88;101248.13;5075379;28;1147;-32
2023/09/16 10:56:40;;;;;;;;;;;;;;;31.46;32.13;101248.47;5075095;28;894;-30
2023/09/16 10:59:10;;;;;;;;;;;;;;;31.41;32.26;101246.38;5057418;28;1910;-32
2023/09/16 11:01:40;;;;;;;;;;;;;;;31.53;32.37;101236.59;5075240;28;1094;-33
2023/09/16 11:04:08;;;;;;;;;;;;;;;31.41;33.69;101243.66;5049102;28;1187;-30
2023/09/16 11:06:33;;;;;;;;;;;;;;;31.08;32.94;101238.81;5061837;28;991;-34
2023/09/16 11:08:59;;;;;;;;;;;;;;;31.22;32.65;101242.44;5075258;28;994;-35
2023/09/16 11:11:24;;;;;;;;;;;;;;;31.40;32.37;101241.94;5074252;28;1146;-30
2023/09/16 11:13:50;;;;;;;;;;;;;;;31.32;32.47;101242.06;5045393;28;2425;-30
2023/09/16 11:16:15;;;;;;;;;;;;;;;31.49;31.38;101234.47;5078941;28;1023;-29
2023/09/16 11:18:42;;;;;;;;;;;;;;;31.52;30.68;101234.06;5079064;28;1909;-33
2023/09/16 11:21:08;;;;;;;;;;;;;;;31.72;30.64;101233.31;5078345;28;915;-32
2023/09/16 11:23:35;;;;;;;;;;;;;;;31.75;30.60;101230.19;5079017;28;1146;-35
2023/09/16 11:26:00;;;;;;;;;;;;;;;31.56;31.20;101232.63;5060926;28;1023;-30
2023/09/16 11:28:27;;;;;;;;;;;;;;;31.25;35.01;101232.00;5060895;28;1342;-28
2023/09/16 11:30:56;;;;;;;;;;;;;;;26.85;39.86;101222.44;5059059;28;1054;-34
2023/09/16 11:33:25;;;;;;;;;;;;;;;24.64;43.00;101214.72;5076198;28;900;-32
2023/09/16 11:36:04;;;;;;;;;;;;;;;23.45;43.97;101213.56;5078781;28;1565;-34
2023/09/16 11:38:30;;;;;;;;;;;;;;;22.61;44.76;101208.75;5078926;28;1968;-31
2023/09/16 11:40:55;;;;;;;;;;;;;;;22.19;45.09;101207.13;5078450;28;999;-29
2023/09/16 11:43:21;;;;;;;;;;;;;;;21.84;45.96;101214.66;5078589;28;2403;-34
2023/09/16 11:45:46;;;;;;;;;;;;;;;21.52;46.75;101202.25;5078159;28;865;-35
2023/09/16 11:48:12;;;;;;;;;;;;;;;21.14;47.36;101213.44;5061030;28;1075;-32
2023/09/16 11:50:37;;;;;;;;;;;;;;;21.20;48.08;101205.88;5078697;28;1073;-33
2023/09/16 11:53:03;;;;;;;;;;;;;;;21.39;49.62;101205.13;5078498;28;1093;-32
2023/09/16 11:55:28;;;;;;;;;;;;;;;21.63;50.12;101209.31;5078300;28;1063;-33
2023/09/16 11:57:54;;;;;;;;;;;;;;;25.84;41.47;101207.91;5078404;28;1014;-35
2023/09/16 12:00:20;;;;;;;;;;;;;;;27.49;37.41;101212.72;5075386;28;1972;-31
2023/09/16 12:02:45;;;;;;;;;;;;;;;28.15;36.45;101206.16;5067695;28;1042;-32
2023/09/16 12:05:11;;;;;;;;;;;;;;;28.46;35.64;101207.16;5078418;28;1106;-32
2023/09/16 12:07:36;;;;;;;;;;;;;;;28.68;35.11;101213.56;5077928;28;1026;-34
2023/09/16 12:10:02;;;;;;;;;;;;;;;28.94;35.25;101206.06;5055876;28;993;-33
2023/09/16 12:12:28;;;;;;;;;;;;;;;28.84;34.53;101209.88;5078259;28;1018;-34
2023/09/16 12:14:53;;;;;;;;;;;;;;;28.84;34.64;101212.56;5077830;28;2582;-34
2023/09/16 12:17:19;;;;;;;;;;;;;;;28.94;34.66;101209.63;5077842;28;1023;-32
2023/09/16 12:19:51;;;;;;;;;;;;;;;28.91;35.15;101203.72;5077848;28;1982;-35
2023/09/16 12:22:16;;;;;;;;;;;;;;;29.04;35.75;101216.66;5078212;28;1101;-34
2023/09/16 12:24:42;;;;;;;;;;;;;;;29.36;35.53;101216.50;5074525;28;1071;-31
2023/09/16 12:27:07;;;;;;;;;;;;;;;28.96;36.11;101206.72;5049958;28;1372;-34
2023/09/16 12:29:33;;;;;;;;;;;;;;;28.93;35.89;101212.50;5066399;28;1249;-30
2023/09/16 12:32:11;;;;;;;;;;;;;;;29.22;34.86;101210.88;5077420;28;1269;-31
2023/09/16 12:34:36;;;;;;;;;;;;;;;29.19;35.11;101217.53;5077522;28;1116;-29
2023/09/16 12:37:02;;;;;;;;;;;;;;;29.20;34.72;101219.19;5077188;28;1039;-33
2023/09/16 12:39:28;;;;;;;;;;;;;;;29.18;34.75;101218.53;5077805;28;1995;-33
2023/09/16 12:41:53;;;;;;;;;;;;;;;28.94;35.19;101216.91;5077528;28;1046;-33
2023/09/16 12:44:19;;;;;;;;;;;;;;;28.98;35.33;101214.69;5077566;28;2261;-29